Terminal Aerodrome Forecast
Issued by NWS Wichita, KS

Home | Current Version | Previous Version | Text Only | Print | Product List | Glossary On
Versions: 1 2 3 4 5 6 7 8 9 10 11 12 13 14 15 16 17 18 19 20 21 22
000
FTUS43 KICT 260400 AAA
TAFICT
TAF AMD
KICT 260427Z 2604/2624 15008KT P6SM FEW080 SCT150
     FM260530 32012G18KT P6SM VCTS BKN080CB
     FM260700 04007KT P6SM BKN100
     FM261500 17009KT P6SM FEW200=

USA.gov is the U.S. government's official web portal to all federal, state and local government web resources and services.